createdAt,value
2022-11-24T00:04:04.474Z,14.52
2022-11-24T00:09:06.780Z,9.73
2022-11-24T00:14:08.856Z,11.77
2022-11-24T00:19:12.009Z,12.63
2022-11-24T00:24:16.411Z,16.42
2022-11-24T00:29:18.181Z,16.67
2022-11-24T00:34:19.827Z,15.77
2022-11-24T00:39:21.501Z,13.88
2022-11-24T00:44:23.274Z,12.80
2022-11-24T00:49:24.949Z,13.70
2022-11-24T00:54:26.558Z,13.88
2022-11-24T00:59:28.259Z,12.82
2022-11-24T01:04:29.913Z,12.93
2022-11-24T01:09:31.528Z,13.20
2022-11-24T01:14:33.848Z,9.75
2022-11-24T01:19:35.688Z,14.82
2022-11-24T01:24:37.383Z,13.55
2022-11-24T01:29:39.143Z,10.68
2022-11-24T01:34:40.832Z,13.52
2022-11-24T01:39:42.527Z,15.60
2022-11-24T01:44:44.350Z,11.27
2022-11-24T01:49:52.034Z,12.05
2022-11-24T01:54:55.754Z,13.73
2022-11-24T02:00:04.147Z,13.75
2022-11-24T02:05:20.503Z,9.20
2022-11-24T02:10:22.491Z,14.45
2022-11-24T02:15:24.364Z,15.23
2022-11-24T02:20:26.545Z,11.23
2022-11-24T02:25:56.515Z,12.52
2022-11-24T02:30:59.354Z,11.48
2022-11-24T02:36:01.091Z,12.75
2022-11-24T02:41:11.509Z,12.50
2022-11-24T02:46:13.246Z,11.18
2022-11-24T02:51:15.064Z,14.57
2022-11-24T02:56:16.736Z,9.75
2022-11-24T03:01:18.415Z,10.88
2022-11-24T03:06:20.129Z,10.68
2022-11-24T03:11:21.797Z,8.38
2022-11-24T03:16:23.815Z,11.48
2022-11-24T03:21:25.466Z,11.05
2022-11-24T03:26:28.016Z,11.85
2022-11-24T03:31:29.729Z,10.00
2022-11-24T03:36:31.515Z,11.18
2022-11-24T03:41:33.355Z,9.23
2022-11-24T03:46:35.244Z,10.43
2022-11-24T03:51:37.002Z,11.68
2022-11-24T03:56:38.597Z,11.60
2022-11-24T04:01:40.307Z,9.50
2022-11-24T04:06:42.032Z,8.07
2022-11-24T04:12:02.285Z,9.02
2022-11-24T04:17:04.333Z,10.65
2022-11-24T04:22:06.102Z,7.32
2022-11-24T04:27:07.791Z,11.02
2022-11-24T04:32:12.351Z,9.02
2022-11-24T04:37:14.079Z,10.63
2022-11-24T04:42:16.013Z,9.27
2022-11-24T04:47:22.801Z,10.13
2022-11-24T04:52:25.595Z,12.35
2022-11-24T04:57:27.682Z,8.68
2022-11-24T05:02:29.363Z,9.40
2022-11-24T05:07:31.240Z,12.98
2022-11-24T05:12:33.688Z,10.02
2022-11-24T05:17:37.522Z,11.75
2022-11-24T05:22:39.212Z,11.88
2022-11-24T05:27:41.125Z,9.10
2022-11-24T05:32:42.823Z,11.98
2022-11-24T05:37:44.685Z,11.93
2022-11-24T05:42:48.215Z,13.82
2022-11-24T05:47:51.463Z,12.35
2022-11-24T05:52:53.127Z,11.90
2022-11-24T05:57:59.311Z,11.93
2022-11-24T06:03:01.399Z,10.65
2022-11-24T06:08:03.243Z,9.43
2022-11-24T06:13:06.612Z,10.48
2022-11-24T06:18:08.282Z,9.98
2022-11-24T06:23:10.245Z,9.20
2022-11-24T06:28:12.399Z,9.88
2022-11-24T06:33:14.402Z,11.32
2022-11-24T06:38:20.133Z,9.85
2022-11-24T06:43:27.500Z,9.93
2022-11-24T06:48:29.901Z,8.77
2022-11-24T06:53:38.551Z,8.65
2022-11-24T06:58:42.062Z,9.07
2022-11-24T07:03:43.754Z,8.82
2022-11-24T07:08:46.044Z,8.43
2022-11-24T07:13:48.079Z,8.77
2022-11-24T07:18:51.360Z,11.85
2022-11-24T07:23:55.035Z,9.40
2022-11-24T07:28:56.708Z,9.35
2022-11-24T07:33:58.458Z,12.45
2022-11-24T07:39:00.268Z,9.82
2022-11-24T07:44:02.383Z,11.90
2022-11-24T07:49:04.158Z,11.07
2022-11-24T07:54:05.931Z,10.23
2022-11-24T07:59:07.859Z,9.25
2022-11-24T08:04:09.624Z,8.80
2022-11-24T08:09:11.604Z,7.65
2022-11-24T08:14:13.271Z,8.70
2022-11-24T08:19:15.025Z,9.30
2022-11-24T08:24:17.151Z,7.32
2022-11-24T08:29:18.820Z,9.68
2022-11-24T08:34:20.509Z,8.32
2022-11-24T08:39:22.225Z,7.95
2022-11-24T08:44:24.245Z,7.03
2022-11-24T08:49:26.089Z,7.85
2022-11-24T08:54:28.072Z,7.63
2022-11-24T08:59:29.715Z,8.68
2022-11-24T09:04:31.575Z,9.98
2022-11-24T09:09:33.432Z,10.05
2022-11-24T09:14:35.228Z,7.88
2022-11-24T09:19:37.271Z,9.20
2022-11-24T09:24:38.904Z,8.52
2022-11-24T09:29:40.544Z,8.38
2022-11-24T09:34:42.216Z,8.93
2022-11-24T09:39:43.944Z,8.00
2022-11-24T09:45:10.603Z,9.50
2022-11-24T09:50:18.607Z,10.02
2022-11-24T09:55:35.621Z,9.65
2022-11-24T10:00:37.491Z,8.02
2022-11-24T10:05:39.287Z,8.40
2022-11-24T10:10:52.364Z,9.63
2022-11-24T10:21:10.762Z,10.10
2022-11-24T10:26:30.239Z,8.40
2022-11-24T10:31:43.371Z,8.23
2022-11-24T10:36:55.191Z,9.38
2022-11-24T10:42:19.654Z,8.65
2022-11-24T10:47:22.823Z,8.85
2022-11-24T10:52:25.388Z,11.40
2022-11-24T10:57:31.689Z,9.43
2022-11-24T11:02:40.255Z,8.15
2022-11-24T11:07:41.998Z,12.13
2022-11-24T11:12:45.008Z,9.88
2022-11-24T11:17:46.999Z,9.13
2022-11-24T11:22:50.379Z,10.50
2022-11-24T11:28:22.375Z,9.38
2022-11-24T11:38:49.557Z,9.30
2022-11-24T11:44:00.618Z,10.25
2022-11-24T11:49:02.831Z,10.18
2022-11-24T11:54:13.455Z,11.82
2022-11-24T11:59:34.868Z,11.15
2022-11-24T12:04:48.655Z,10.68
2022-11-24T12:10:18.153Z,11.10
2022-11-24T12:15:44.459Z,9.52
2022-11-24T12:20:58.527Z,9.02
2022-11-24T12:26:17.234Z,9.45
2022-11-24T12:31:52.814Z,11.15
2022-11-24T12:37:17.677Z,12.60
2022-11-24T12:42:30.304Z,12.77
2022-11-24T12:47:58.911Z,9.80
2022-11-24T12:53:05.170Z,10.65
2022-11-24T12:58:34.926Z,10.15
2022-11-24T13:04:00.756Z,10.68
2022-11-24T13:09:10.493Z,11.05
2022-11-24T13:14:16.820Z,9.93
2022-11-24T13:19:29.602Z,11.82
2022-11-24T13:24:34.540Z,9.90
2022-11-24T13:29:37.683Z,11.55
2022-11-24T13:34:39.450Z,9.65
2022-11-24T13:39:51.234Z,11.75
2022-11-24T13:44:55.659Z,12.82
2022-11-24T13:49:57.748Z,11.25
2022-11-24T13:54:59.491Z,10.90
2022-11-24T14:00:04.739Z,11.05
2022-11-24T14:05:06.341Z,11.68
2022-11-24T14:10:15.740Z,10.25
2022-11-24T14:15:25.851Z,12.95
2022-11-24T14:20:28.425Z,12.32
2022-11-24T14:25:31.603Z,12.38
2022-11-24T14:30:33.310Z,13.20
2022-11-24T14:35:35.757Z,11.82
2022-11-24T14:40:48.438Z,9.95
2022-11-24T14:45:52.012Z,12.85
2022-11-24T14:50:55.738Z,12.25
2022-11-24T14:56:08.638Z,12.75
2022-11-24T15:01:20.832Z,15.73
2022-11-24T15:06:22.553Z,10.55
2022-11-24T15:11:24.186Z,14.10
2022-11-24T15:16:27.813Z,11.10
2022-11-24T15:21:33.782Z,10.88
2022-11-24T15:26:41.459Z,10.35
2022-11-24T15:31:47.937Z,6.85
2022-11-24T15:36:54.018Z,6.80
2022-11-24T15:41:55.715Z,6.05
2022-11-24T15:46:57.587Z,11.75
2022-11-24T15:52:00.025Z,12.85
2022-11-24T15:57:01.768Z,8.43
2022-11-24T16:02:03.508Z,13.95
2022-11-24T16:07:06.788Z,13.48
2022-11-24T16:12:08.537Z,13.35
2022-11-24T16:17:10.213Z,14.50
2022-11-24T16:22:11.937Z,14.85
2022-11-24T16:27:13.574Z,10.60
2022-11-24T16:32:15.268Z,8.68
2022-11-24T16:37:16.925Z,14.85
2022-11-24T16:42:18.614Z,14.88
2022-11-24T16:47:20.453Z,12.77
2022-11-24T16:52:22.232Z,14.80
2022-11-24T16:57:23.871Z,9.35
2022-11-24T17:02:25.897Z,15.85
2022-11-24T17:07:27.843Z,13.60
2022-11-24T17:12:29.523Z,18.10
2022-11-24T17:17:31.277Z,16.58
2022-11-24T17:22:32.928Z,9.55
2022-11-24T17:27:34.615Z,11.90
2022-11-24T17:32:36.268Z,17.27
2022-11-24T17:37:38.128Z,11.85
2022-11-24T17:42:39.799Z,15.35
2022-11-24T17:47:41.480Z,15.07
2022-11-24T17:52:43.246Z,16.67
2022-11-24T17:57:44.932Z,12.27
2022-11-24T18:02:46.629Z,12.10
2022-11-24T18:07:48.340Z,11.75
2022-11-24T18:12:50.100Z,13.50
2022-11-24T18:17:52.536Z,12.05
2022-11-24T18:23:09.315Z,15.77
2022-11-24T18:28:11.009Z,14.30
2022-11-24T18:33:12.730Z,15.48
2022-11-24T18:38:14.449Z,14.75
2022-11-24T18:43:16.101Z,17.33
2022-11-24T18:48:17.752Z,17.80
2022-11-24T18:53:20.662Z,13.45
2022-11-24T18:58:24.885Z,12.45
2022-11-24T19:03:26.483Z,11.27
2022-11-24T19:08:28.119Z,20.20
2022-11-24T19:13:29.788Z,17.92
2022-11-24T19:18:31.416Z,14.27
2022-11-24T19:23:33.037Z,10.48
2022-11-24T19:28:34.803Z,16.58
2022-11-24T19:33:36.533Z,13.23
2022-11-24T19:38:38.423Z,19.95
2022-11-24T19:43:40.998Z,21.25
2022-11-24T19:48:44.680Z,21.60
2022-11-24T19:53:46.906Z,15.55
2022-11-24T19:58:48.983Z,14.05
2022-11-24T20:04:00.664Z,21.25
2022-11-24T20:09:03.462Z,13.98
2022-11-24T20:14:06.744Z,18.15
2022-11-24T20:19:11.716Z,13.82
2022-11-24T20:24:16.155Z,15.25
2022-11-24T20:29:18.384Z,20.15
2022-11-24T20:34:20.605Z,17.45
2022-11-24T20:39:27.818Z,12.50
2022-11-24T20:44:30.266Z,15.90
2022-11-24T20:49:31.946Z,12.30
2022-11-24T20:54:33.858Z,16.40
2022-11-24T20:59:35.667Z,13.60
2022-11-24T21:04:37.514Z,13.38
2022-11-24T21:09:39.617Z,13.80
2022-11-24T21:14:41.647Z,14.90
2022-11-24T21:19:43.297Z,16.55
2022-11-24T21:24:44.974Z,18.30
2022-11-24T21:29:46.588Z,16.52
2022-11-24T21:34:48.197Z,12.55
2022-11-24T21:39:49.862Z,17.48
2022-11-24T21:44:51.503Z,17.65
2022-11-24T21:49:53.263Z,17.02
2022-11-24T21:54:54.946Z,14.23
2022-11-24T21:59:56.820Z,16.10
2022-11-24T22:04:58.441Z,16.55
2022-11-24T22:10:00.066Z,16.13
2022-11-24T22:15:01.748Z,13.10
2022-11-24T22:20:03.736Z,12.65
2022-11-24T22:25:05.938Z,14.45
2022-11-24T22:30:08.332Z,9.20
2022-11-24T22:35:09.981Z,13.25
2022-11-24T22:40:11.780Z,13.88
2022-11-24T22:45:13.429Z,12.88
2022-11-24T22:50:15.085Z,10.35
2022-11-24T22:55:16.774Z,12.73
2022-11-24T23:00:18.689Z,9.20
2022-11-24T23:05:20.985Z,12.25
2022-11-24T23:10:23.269Z,7.95
2022-11-24T23:15:24.984Z,11.05
2022-11-24T23:20:26.601Z,7.70
2022-11-24T23:25:28.216Z,5.20
2022-11-24T23:30:30.019Z,5.95
2022-11-24T23:35:33.079Z,6.38
2022-11-24T23:40:34.733Z,3.88
2022-11-24T23:45:36.462Z,6.35
2022-11-24T23:50:38.218Z,5.60
2022-11-24T23:55:39.947Z,5.05
